sensor_id;sensor_type;location;lat;lon;timestamp;temperature;humidity
15574;DHT22;7888;46.748;8.102;2023-06-26T00:01:17;25.60;43.60
15574;DHT22;7888;46.748;8.102;2023-06-26T00:03:46;25.50;43.60
15574;DHT22;7888;46.748;8.102;2023-06-26T00:06:13;25.50;43.60
15574;DHT22;7888;46.748;8.102;2023-06-26T00:08:39;25.50;43.60
15574;DHT22;7888;46.748;8.102;2023-06-26T00:11:06;25.40;43.70
15574;DHT22;7888;46.748;8.102;2023-06-26T00:13:31;25.30;43.70
15574;DHT22;7888;46.748;8.102;2023-06-26T00:15:57;25.30;43.90
15574;DHT22;7888;46.748;8.102;2023-06-26T00:18:23;25.30;43.90
15574;DHT22;7888;46.748;8.102;2023-06-26T00:20:49;25.30;44.20
15574;DHT22;7888;46.748;8.102;2023-06-26T00:23:18;25.30;43.90
15574;DHT22;7888;46.748;8.102;2023-06-26T00:25:44;25.20;44.10
15574;DHT22;7888;46.748;8.102;2023-06-26T00:28:10;25.20;44.20
15574;DHT22;7888;46.748;8.102;2023-06-26T00:30:35;25.10;44.10
15574;DHT22;7888;46.748;8.102;2023-06-26T00:33:01;25.10;44.20
15574;DHT22;7888;46.748;8.102;2023-06-26T00:35:27;25.10;44.30
15574;DHT22;7888;46.748;8.102;2023-06-26T00:37:53;25.10;44.40
15574;DHT22;7888;46.748;8.102;2023-06-26T00:40:19;25.10;44.50
15574;DHT22;7888;46.748;8.102;2023-06-26T00:42:45;25.00;44.60
15574;DHT22;7888;46.748;8.102;2023-06-26T00:45:10;25.00;44.50
15574;DHT22;7888;46.748;8.102;2023-06-26T00:47:37;25.00;44.80
15574;DHT22;7888;46.748;8.102;2023-06-26T00:50:04;24.90;44.70
15574;DHT22;7888;46.748;8.102;2023-06-26T00:52:31;24.90;44.90
15574;DHT22;7888;46.748;8.102;2023-06-26T00:54:58;24.90;44.90
15574;DHT22;7888;46.748;8.102;2023-06-26T00:57:24;24.80;44.90
15574;DHT22;7888;46.748;8.102;2023-06-26T00:59:49;24.80;45.00
15574;DHT22;7888;46.748;8.102;2023-06-26T01:02:15;24.80;45.10
15574;DHT22;7888;46.748;8.102;2023-06-26T01:04:47;24.70;45.10
15574;DHT22;7888;46.748;8.102;2023-06-26T01:07:16;24.70;45.00
15574;DHT22;7888;46.748;8.102;2023-06-26T01:09:45;24.70;45.30
15574;DHT22;7888;46.748;8.102;2023-06-26T01:12:12;24.70;45.40
15574;DHT22;7888;46.748;8.102;2023-06-26T01:14:38;24.70;45.40
15574;DHT22;7888;46.748;8.102;2023-06-26T01:17:04;24.60;45.40
15574;DHT22;7888;46.748;8.102;2023-06-26T01:19:32;24.60;45.30
15574;DHT22;7888;46.748;8.102;2023-06-26T01:22:32;24.60;45.40
15574;DHT22;7888;46.748;8.102;2023-06-26T01:28:25;24.50;45.70
15574;DHT22;7888;46.748;8.102;2023-06-26T01:30:54;24.50;45.30
15574;DHT22;7888;46.748;8.102;2023-06-26T01:33:20;24.50;45.40
15574;DHT22;7888;46.748;8.102;2023-06-26T01:35:46;24.50;45.60
15574;DHT22;7888;46.748;8.102;2023-06-26T01:38:18;24.40;45.70
15574;DHT22;7888;46.748;8.102;2023-06-26T01:40:46;24.40;46.50
15574;DHT22;7888;46.748;8.102;2023-06-26T01:46:24;24.30;46.00
15574;DHT22;7888;46.748;8.102;2023-06-26T01:49:03;24.30;46.10
15574;DHT22;7888;46.748;8.102;2023-06-26T01:55:21;24.20;46.30
15574;DHT22;7888;46.748;8.102;2023-06-26T01:57:50;24.20;46.30
15574;DHT22;7888;46.748;8.102;2023-06-26T02:00:20;24.20;46.00
15574;DHT22;7888;46.748;8.102;2023-06-26T02:02:46;24.20;45.90
15574;DHT22;7888;46.748;8.102;2023-06-26T02:05:13;24.20;45.90
15574;DHT22;7888;46.748;8.102;2023-06-26T02:07:39;24.10;46.10
15574;DHT22;7888;46.748;8.102;2023-06-26T02:10:06;24.10;46.10
15574;DHT22;7888;46.748;8.102;2023-06-26T02:12:32;24.10;46.30
15574;DHT22;7888;46.748;8.102;2023-06-26T02:14:58;24.00;46.10
15574;DHT22;7888;46.748;8.102;2023-06-26T02:17:23;24.00;46.40
15574;DHT22;7888;46.748;8.102;2023-06-26T02:19:49;24.00;46.10
15574;DHT22;7888;46.748;8.102;2023-06-26T02:22:16;24.00;46.40
15574;DHT22;7888;46.748;8.102;2023-06-26T02:24:45;23.90;46.30
15574;DHT22;7888;46.748;8.102;2023-06-26T02:27:11;23.90;46.70
15574;DHT22;7888;46.748;8.102;2023-06-26T02:29:38;23.90;46.60
15574;DHT22;7888;46.748;8.102;2023-06-26T02:32:04;23.90;46.70
15574;DHT22;7888;46.748;8.102;2023-06-26T02:34:30;23.90;46.70
15574;DHT22;7888;46.748;8.102;2023-06-26T02:36:56;23.80;46.60
15574;DHT22;7888;46.748;8.102;2023-06-26T02:39:24;23.80;46.70
15574;DHT22;7888;46.748;8.102;2023-06-26T02:41:50;23.80;46.70
15574;DHT22;7888;46.748;8.102;2023-06-26T02:44:15;23.80;46.70
15574;DHT22;7888;46.748;8.102;2023-06-26T02:46:41;23.70;46.70
15574;DHT22;7888;46.748;8.102;2023-06-26T02:49:07;23.70;46.80
15574;DHT22;7888;46.748;8.102;2023-06-26T02:51:33;23.70;46.70
15574;DHT22;7888;46.748;8.102;2023-06-26T02:53:59;23.70;46.80
15574;DHT22;7888;46.748;8.102;2023-06-26T02:56:26;23.70;47.00
15574;DHT22;7888;46.748;8.102;2023-06-26T02:58:55;23.60;46.80
15574;DHT22;7888;46.748;8.102;2023-06-26T03:01:21;23.60;46.80
15574;DHT22;7888;46.748;8.102;2023-06-26T03:03:48;23.60;46.90
15574;DHT22;7888;46.748;8.102;2023-06-26T03:06:14;23.60;47.20
15574;DHT22;7888;46.748;8.102;2023-06-26T03:08:41;23.60;47.30
15574;DHT22;7888;46.748;8.102;2023-06-26T03:11:07;23.50;47.10
15574;DHT22;7888;46.748;8.102;2023-06-26T03:13:35;23.50;47.00
15574;DHT22;7888;46.748;8.102;2023-06-26T03:16:01;23.50;47.30
15574;DHT22;7888;46.748;8.102;2023-06-26T03:18:28;23.50;47.30
15574;DHT22;7888;46.748;8.102;2023-06-26T03:20:55;23.50;47.30
15574;DHT22;7888;46.748;8.102;2023-06-26T03:23:22;23.40;47.20
15574;DHT22;7888;46.748;8.102;2023-06-26T03:25:49;23.40;47.30
15574;DHT22;7888;46.748;8.102;2023-06-26T03:28:15;23.40;47.40
15574;DHT22;7888;46.748;8.102;2023-06-26T03:30:41;23.40;47.50
15574;DHT22;7888;46.748;8.102;2023-06-26T03:33:07;23.40;47.40
15574;DHT22;7888;46.748;8.102;2023-06-26T03:35:33;23.40;47.50
15574;DHT22;7888;46.748;8.102;2023-06-26T03:37:59;23.30;47.40
15574;DHT22;7888;46.748;8.102;2023-06-26T03:40:27;23.30;47.50
15574;DHT22;7888;46.748;8.102;2023-06-26T03:42:52;23.30;47.60
15574;DHT22;7888;46.748;8.102;2023-06-26T03:45:19;23.30;47.70
15574;DHT22;7888;46.748;8.102;2023-06-26T03:47:45;23.20;47.80
15574;DHT22;7888;46.748;8.102;2023-06-26T03:50:18;23.20;47.90
15574;DHT22;7888;46.748;8.102;2023-06-26T03:52:45;23.20;47.80
15574;DHT22;7888;46.748;8.102;2023-06-26T03:55:12;23.20;48.00
15574;DHT22;7888;46.748;8.102;2023-06-26T03:57:37;23.20;48.10
15574;DHT22;7888;46.748;8.102;2023-06-26T04:00:03;23.10;48.00
15574;DHT22;7888;46.748;8.102;2023-06-26T04:02:38;23.10;48.00
15574;DHT22;7888;46.748;8.102;2023-06-26T04:05:04;23.10;48.00
15574;DHT22;7888;46.748;8.102;2023-06-26T04:07:30;23.10;48.20
15574;DHT22;7888;46.748;8.102;2023-06-26T04:09:57;23.10;48.10
15574;DHT22;7888;46.748;8.102;2023-06-26T04:12:23;23.10;48.30
15574;DHT22;7888;46.748;8.102;2023-06-26T04:14:49;23.10;48.20
15574;DHT22;7888;46.748;8.102;2023-06-26T04:17:15;23.00;48.20
15574;DHT22;7888;46.748;8.102;2023-06-26T04:19:40;23.00;48.30
15574;DHT22;7888;46.748;8.102;2023-06-26T04:22:06;23.00;48.20
15574;DHT22;7888;46.748;8.102;2023-06-26T04:24:32;23.00;48.20
15574;DHT22;7888;46.748;8.102;2023-06-26T04:26:58;23.00;48.30
15574;DHT22;7888;46.748;8.102;2023-06-26T04:29:27;23.00;48.20
15574;DHT22;7888;46.748;8.102;2023-06-26T04:31:53;23.00;48.40
15574;DHT22;7888;46.748;8.102;2023-06-26T04:34:24;23.00;48.50
15574;DHT22;7888;46.748;8.102;2023-06-26T04:36:51;23.00;48.50
15574;DHT22;7888;46.748;8.102;2023-06-26T04:39:17;23.00;48.50
15574;DHT22;7888;46.748;8.102;2023-06-26T04:41:43;22.90;48.60
15574;DHT22;7888;46.748;8.102;2023-06-26T04:44:10;22.90;48.40
15574;DHT22;7888;46.748;8.102;2023-06-26T04:46:37;23.00;48.50
15574;DHT22;7888;46.748;8.102;2023-06-26T04:49:09;23.00;48.70
15574;DHT22;7888;46.748;8.102;2023-06-26T04:51:36;23.00;48.70
15574;DHT22;7888;46.748;8.102;2023-06-26T04:54:08;23.00;48.90
15574;DHT22;7888;46.748;8.102;2023-06-26T04:56:35;23.00;49.00
15574;DHT22;7888;46.748;8.102;2023-06-26T04:59:02;23.00;48.90
15574;DHT22;7888;46.748;8.102;2023-06-26T05:01:28;23.00;49.00
15574;DHT22;7888;46.748;8.102;2023-06-26T05:04:01;23.10;49.10
15574;DHT22;7888;46.748;8.102;2023-06-26T05:06:27;23.00;49.30
15574;DHT22;7888;46.748;8.102;2023-06-26T05:08:53;23.00;49.20
15574;DHT22;7888;46.748;8.102;2023-06-26T05:11:19;23.10;49.10
15574;DHT22;7888;46.748;8.102;2023-06-26T05:13:45;23.10;49.30
15574;DHT22;7888;46.748;8.102;2023-06-26T05:16:10;23.10;49.70
15574;DHT22;7888;46.748;8.102;2023-06-26T05:18:36;23.10;49.40
15574;DHT22;7888;46.748;8.102;2023-06-26T05:21:02;23.10;49.50
15574;DHT22;7888;46.748;8.102;2023-06-26T05:23:31;23.20;49.60
15574;DHT22;7888;46.748;8.102;2023-06-26T05:25:59;23.20;49.70
15574;DHT22;7888;46.748;8.102;2023-06-26T05:28:29;23.20;49.60
15574;DHT22;7888;46.748;8.102;2023-06-26T05:30:57;23.30;49.70
15574;DHT22;7888;46.748;8.102;2023-06-26T05:33:25;23.30;49.60
15574;DHT22;7888;46.748;8.102;2023-06-26T05:35:52;23.30;49.60
15574;DHT22;7888;46.748;8.102;2023-06-26T05:38:19;23.40;49.70
15574;DHT22;7888;46.748;8.102;2023-06-26T05:40:46;23.40;49.70
15574;DHT22;7888;46.748;8.102;2023-06-26T05:43:12;23.40;49.60
15574;DHT22;7888;46.748;8.102;2023-06-26T05:45:38;23.40;49.70
15574;DHT22;7888;46.748;8.102;2023-06-26T05:48:05;23.50;49.80
15574;DHT22;7888;46.748;8.102;2023-06-26T05:50:31;23.50;49.70
15574;DHT22;7888;46.748;8.102;2023-06-26T05:52:58;23.60;49.80
15574;DHT22;7888;46.748;8.102;2023-06-26T05:55:24;23.60;49.80
15574;DHT22;7888;46.748;8.102;2023-06-26T05:57:51;23.70;49.80
15574;DHT22;7888;46.748;8.102;2023-06-26T06:00:18;23.80;49.90
15574;DHT22;7888;46.748;8.102;2023-06-26T06:02:44;23.80;49.80
15574;DHT22;7888;46.748;8.102;2023-06-26T06:05:10;23.90;49.90
15574;DHT22;7888;46.748;8.102;2023-06-26T06:07:36;24.00;49.70
15574;DHT22;7888;46.748;8.102;2023-06-26T06:10:03;24.10;49.50
15574;DHT22;7888;46.748;8.102;2023-06-26T06:12:29;24.10;49.50
15574;DHT22;7888;46.748;8.102;2023-06-26T06:14:56;24.20;49.50
15574;DHT22;7888;46.748;8.102;2023-06-26T06:17:22;24.30;49.60
15574;DHT22;7888;46.748;8.102;2023-06-26T06:19:49;24.40;49.50
15574;DHT22;7888;46.748;8.102;2023-06-26T06:22:15;24.50;49.40
15574;DHT22;7888;46.748;8.102;2023-06-26T06:24:42;24.60;49.10
15574;DHT22;7888;46.748;8.102;2023-06-26T06:27:07;24.70;48.90
15574;DHT22;7888;46.748;8.102;2023-06-26T06:29:33;24.80;48.80
15574;DHT22;7888;46.748;8.102;2023-06-26T06:31:59;24.90;48.70
15574;DHT22;7888;46.748;8.102;2023-06-26T06:34:25;25.00;48.60
15574;DHT22;7888;46.748;8.102;2023-06-26T06:36:50;25.10;48.50
15574;DHT22;7888;46.748;8.102;2023-06-26T06:39:16;25.30;48.50
15574;DHT22;7888;46.748;8.102;2023-06-26T06:41:42;25.30;48.30
15574;DHT22;7888;46.748;8.102;2023-06-26T06:44:08;25.50;48.20
15574;DHT22;7888;46.748;8.102;2023-06-26T06:46:33;25.60;48.40
15574;DHT22;7888;46.748;8.102;2023-06-26T06:49:00;25.70;48.10
15574;DHT22;7888;46.748;8.102;2023-06-26T06:51:26;25.80;47.90
15574;DHT22;7888;46.748;8.102;2023-06-26T06:53:52;25.90;47.80
15574;DHT22;7888;46.748;8.102;2023-06-26T06:56:17;26.00;47.60
15574;DHT22;7888;46.748;8.102;2023-06-26T06:58:43;26.20;47.70
15574;DHT22;7888;46.748;8.102;2023-06-26T07:01:12;26.30;47.60
15574;DHT22;7888;46.748;8.102;2023-06-26T07:03:39;26.40;47.60
15574;DHT22;7888;46.748;8.102;2023-06-26T07:06:05;26.50;47.50
15574;DHT22;7888;46.748;8.102;2023-06-26T07:08:31;26.60;47.40
15574;DHT22;7888;46.748;8.102;2023-06-26T07:10:57;26.70;47.10
15574;DHT22;7888;46.748;8.102;2023-06-26T07:13:23;26.80;47.20
15574;DHT22;7888;46.748;8.102;2023-06-26T07:15:49;26.90;47.20
15574;DHT22;7888;46.748;8.102;2023-06-26T07:18:15;26.90;47.10
15574;DHT22;7888;46.748;8.102;2023-06-26T07:20:41;27.00;46.80
15574;DHT22;7888;46.748;8.102;2023-06-26T07:23:07;27.10;46.80
15574;DHT22;7888;46.748;8.102;2023-06-26T07:25:34;27.30;46.70
15574;DHT22;7888;46.748;8.102;2023-06-26T07:28:00;27.40;46.40
15574;DHT22;7888;46.748;8.102;2023-06-26T07:30:26;27.50;46.30
15574;DHT22;7888;46.748;8.102;2023-06-26T07:32:51;27.60;46.10
15574;DHT22;7888;46.748;8.102;2023-06-26T07:35:17;27.80;46.00
15574;DHT22;7888;46.748;8.102;2023-06-26T07:37:43;27.80;45.80
15574;DHT22;7888;46.748;8.102;2023-06-26T07:40:10;28.00;45.70
15574;DHT22;7888;46.748;8.102;2023-06-26T07:42:36;28.10;45.60
15574;DHT22;7888;46.748;8.102;2023-06-26T07:45:02;28.20;45.40
15574;DHT22;7888;46.748;8.102;2023-06-26T07:47:35;28.30;45.40
15574;DHT22;7888;46.748;8.102;2023-06-26T07:50:02;28.40;45.40
15574;DHT22;7888;46.748;8.102;2023-06-26T07:52:28;28.50;44.60
15574;DHT22;7888;46.748;8.102;2023-06-26T07:54:55;28.60;44.90
15574;DHT22;7888;46.748;8.102;2023-06-26T07:57:21;28.70;44.50
15574;DHT22;7888;46.748;8.102;2023-06-26T07:59:47;28.80;44.30
15574;DHT22;7888;46.748;8.102;2023-06-26T08:02:13;28.90;44.10
15574;DHT22;7888;46.748;8.102;2023-06-26T08:04:39;29.00;43.90
15574;DHT22;7888;46.748;8.102;2023-06-26T08:07:05;29.10;43.90
15574;DHT22;7888;46.748;8.102;2023-06-26T08:09:31;29.20;43.70
15574;DHT22;7888;46.748;8.102;2023-06-26T08:11:58;29.20;43.50
15574;DHT22;7888;46.748;8.102;2023-06-26T08:14:24;29.30;43.50
15574;DHT22;7888;46.748;8.102;2023-06-26T08:16:50;29.40;43.20
15574;DHT22;7888;46.748;8.102;2023-06-26T08:19:17;29.50;43.00
15574;DHT22;7888;46.748;8.102;2023-06-26T08:21:44;29.60;42.80
15574;DHT22;7888;46.748;8.102;2023-06-26T08:24:11;29.70;42.60
15574;DHT22;7888;46.748;8.102;2023-06-26T08:26:38;29.80;42.40
15574;DHT22;7888;46.748;8.102;2023-06-26T08:29:06;29.90;42.30
15574;DHT22;7888;46.748;8.102;2023-06-26T08:31:35;29.90;42.10
15574;DHT22;7888;46.748;8.102;2023-06-26T08:34:04;30.00;42.00
15574;DHT22;7888;46.748;8.102;2023-06-26T08:36:31;30.10;41.40
15574;DHT22;7888;46.748;8.102;2023-06-26T08:38:58;30.10;41.60
15574;DHT22;7888;46.748;8.102;2023-06-26T08:41:24;30.20;40.80
15574;DHT22;7888;46.748;8.102;2023-06-26T08:43:50;30.40;40.20
15574;DHT22;7888;46.748;8.102;2023-06-26T08:46:18;30.50;39.90
15574;DHT22;7888;46.748;8.102;2023-06-26T08:48:56;30.50;40.00
15574;DHT22;7888;46.748;8.102;2023-06-26T08:51:28;30.70;39.80
15574;DHT22;7888;46.748;8.102;2023-06-26T08:54:00;30.80;39.90
15574;DHT22;7888;46.748;8.102;2023-06-26T08:56:36;30.90;39.20
15574;DHT22;7888;46.748;8.102;2023-06-26T08:59:06;31.10;39.40
15574;DHT22;7888;46.748;8.102;2023-06-26T09:01:36;31.20;39.00
15574;DHT22;7888;46.748;8.102;2023-06-26T09:04:03;31.30;39.10
15574;DHT22;7888;46.748;8.102;2023-06-26T09:06:28;31.40;38.90
15574;DHT22;7888;46.748;8.102;2023-06-26T09:08:55;31.50;39.20
15574;DHT22;7888;46.748;8.102;2023-06-26T09:11:21;31.60;39.00
15574;DHT22;7888;46.748;8.102;2023-06-26T09:13:46;31.70;38.60
15574;DHT22;7888;46.748;8.102;2023-06-26T09:16:13;31.80;38.20
15574;DHT22;7888;46.748;8.102;2023-06-26T09:18:41;31.90;38.00
15574;DHT22;7888;46.748;8.102;2023-06-26T09:21:10;32.00;37.60
15574;DHT22;7888;46.748;8.102;2023-06-26T09:23:37;32.10;37.90
15574;DHT22;7888;46.748;8.102;2023-06-26T09:26:06;32.20;37.90
15574;DHT22;7888;46.748;8.102;2023-06-26T09:28:33;32.30;38.00
15574;DHT22;7888;46.748;8.102;2023-06-26T09:31:01;32.40;37.70
15574;DHT22;7888;46.748;8.102;2023-06-26T09:33:35;32.50;37.70
15574;DHT22;7888;46.748;8.102;2023-06-26T09:36:06;32.60;37.30
15574;DHT22;7888;46.748;8.102;2023-06-26T09:38:34;32.70;37.10
15574;DHT22;7888;46.748;8.102;2023-06-26T09:41:04;32.90;37.10
15574;DHT22;7888;46.748;8.102;2023-06-26T09:43:30;32.90;36.50
15574;DHT22;7888;46.748;8.102;2023-06-26T09:45:57;33.10;36.40
15574;DHT22;7888;46.748;8.102;2023-06-26T09:48:23;33.20;36.20
15574;DHT22;7888;46.748;8.102;2023-06-26T09:50:49;33.30;36.20
15574;DHT22;7888;46.748;8.102;2023-06-26T09:53:15;33.50;35.80
15574;DHT22;7888;46.748;8.102;2023-06-26T09:55:43;33.60;35.40
15574;DHT22;7888;46.748;8.102;2023-06-26T09:58:13;33.70;35.40
15574;DHT22;7888;46.748;8.102;2023-06-26T10:00:42;33.70;34.90
15574;DHT22;7888;46.748;8.102;2023-06-26T10:03:10;33.80;34.50
15574;DHT22;7888;46.748;8.102;2023-06-26T10:05:38;33.90;34.00
15574;DHT22;7888;46.748;8.102;2023-06-26T10:08:05;33.90;33.70
15574;DHT22;7888;46.748;8.102;2023-06-26T10:10:34;34.00;33.90
15574;DHT22;7888;46.748;8.102;2023-06-26T10:13:13;34.10;33.50
15574;DHT22;7888;46.748;8.102;2023-06-26T10:15:45;34.20;33.20
15574;DHT22;7888;46.748;8.102;2023-06-26T10:18:13;34.20;33.60
15574;DHT22;7888;46.748;8.102;2023-06-26T10:20:42;34.30;33.70
15574;DHT22;7888;46.748;8.102;2023-06-26T10:23:12;34.50;34.30
15574;DHT22;7888;46.748;8.102;2023-06-26T10:25:42;34.50;34.40
15574;DHT22;7888;46.748;8.102;2023-06-26T10:28:12;34.60;34.00
15574;DHT22;7888;46.748;8.102;2023-06-26T10:30:42;34.80;32.80
15574;DHT22;7888;46.748;8.102;2023-06-26T10:33:10;34.90;33.60
15574;DHT22;7888;46.748;8.102;2023-06-26T10:35:44;35.10;32.80
15574;DHT22;7888;46.748;8.102;2023-06-26T10:38:11;35.20;32.60
15574;DHT22;7888;46.748;8.102;2023-06-26T10:40:42;35.40;32.40
15574;DHT22;7888;46.748;8.102;2023-06-26T10:43:11;35.50;31.10
15574;DHT22;7888;46.748;8.102;2023-06-26T10:45:44;35.70;31.60
15574;DHT22;7888;46.748;8.102;2023-06-26T10:48:16;35.70;30.70
15574;DHT22;7888;46.748;8.102;2023-06-26T10:50:42;35.80;30.60
15574;DHT22;7888;46.748;8.102;2023-06-26T10:53:14;35.90;31.00
15574;DHT22;7888;46.748;8.102;2023-06-26T10:55:54;36.00;30.30
15574;DHT22;7888;46.748;8.102;2023-06-26T11:01:16;36.20;30.50
15574;DHT22;7888;46.748;8.102;2023-06-26T11:03:48;36.20;30.40
15574;DHT22;7888;46.748;8.102;2023-06-26T11:06:31;36.20;30.30
15574;DHT22;7888;46.748;8.102;2023-06-26T11:14:18;36.20;31.10
15574;DHT22;7888;46.748;8.102;2023-06-26T11:16:44;36.20;31.50
15574;DHT22;7888;46.748;8.102;2023-06-26T11:19:11;36.20;31.00
15574;DHT22;7888;46.748;8.102;2023-06-26T11:21:40;36.20;31.20
15574;DHT22;7888;46.748;8.102;2023-06-26T11:24:07;36.20;30.80
15574;DHT22;7888;46.748;8.102;2023-06-26T11:26:40;36.20;30.90
15574;DHT22;7888;46.748;8.102;2023-06-26T11:29:07;36.30;30.20
15574;DHT22;7888;46.748;8.102;2023-06-26T11:31:38;36.50;31.10
15574;DHT22;7888;46.748;8.102;2023-06-26T11:34:11;36.60;30.20
15574;DHT22;7888;46.748;8.102;2023-06-26T11:36:39;36.60;30.00
15574;DHT22;7888;46.748;8.102;2023-06-26T11:39:07;36.80;30.10
15574;DHT22;7888;46.748;8.102;2023-06-26T11:41:35;37.00;29.80
15574;DHT22;7888;46.748;8.102;2023-06-26T11:44:07;37.10;29.40
15574;DHT22;7888;46.748;8.102;2023-06-26T11:46:37;37.20;29.30
15574;DHT22;7888;46.748;8.102;2023-06-26T11:49:04;37.40;29.20
15574;DHT22;7888;46.748;8.102;2023-06-26T11:51:31;37.40;29.20
15574;DHT22;7888;46.748;8.102;2023-06-26T11:54:00;37.50;29.10
15574;DHT22;7888;46.748;8.102;2023-06-26T11:56:27;37.60;29.00
15574;DHT22;7888;46.748;8.102;2023-06-26T11:59:02;37.60;29.00
15574;DHT22;7888;46.748;8.102;2023-06-26T12:01:49;37.60;28.70
15574;DHT22;7888;46.748;8.102;2023-06-26T12:04:18;37.70;28.80
15574;DHT22;7888;46.748;8.102;2023-06-26T12:06:47;37.70;28.50
15574;DHT22;7888;46.748;8.102;2023-06-26T12:09:17;37.60;28.20
15574;DHT22;7888;46.748;8.102;2023-06-26T12:11:46;37.60;27.90
15574;DHT22;7888;46.748;8.102;2023-06-26T12:14:17;37.60;27.70
15574;DHT22;7888;46.748;8.102;2023-06-26T12:16:45;37.60;27.70
15574;DHT22;7888;46.748;8.102;2023-06-26T12:19:11;37.50;27.70
15574;DHT22;7888;46.748;8.102;2023-06-26T12:24:03;37.50;27.60
15574;DHT22;7888;46.748;8.102;2023-06-26T12:26:30;37.50;27.70
15574;DHT22;7888;46.748;8.102;2023-06-26T12:29:06;37.50;27.50
15574;DHT22;7888;46.748;8.102;2023-06-26T12:31:34;37.40;27.30
15574;DHT22;7888;46.748;8.102;2023-06-26T12:34:01;37.40;27.20
15574;DHT22;7888;46.748;8.102;2023-06-26T12:36:27;37.40;27.10
15574;DHT22;7888;46.748;8.102;2023-06-26T12:38:54;37.40;27.20
15574;DHT22;7888;46.748;8.102;2023-06-26T12:41:23;37.40;27.00
15574;DHT22;7888;46.748;8.102;2023-06-26T12:43:49;37.40;27.00
15574;DHT22;7888;46.748;8.102;2023-06-26T12:46:35;37.40;27.20
15574;DHT22;7888;46.748;8.102;2023-06-26T12:49:01;37.40;27.40
15574;DHT22;7888;46.748;8.102;2023-06-26T12:51:28;37.40;27.60
15574;DHT22;7888;46.748;8.102;2023-06-26T12:53:54;37.40;27.30
15574;DHT22;7888;46.748;8.102;2023-06-26T12:56:19;37.50;27.20
15574;DHT22;7888;46.748;8.102;2023-06-26T12:58:45;37.60;27.00
15574;DHT22;7888;46.748;8.102;2023-06-26T13:01:11;37.60;27.10
15574;DHT22;7888;46.748;8.102;2023-06-26T13:03:39;37.60;27.00
15574;DHT22;7888;46.748;8.102;2023-06-26T13:06:05;37.60;27.10
15574;DHT22;7888;46.748;8.102;2023-06-26T13:08:33;37.60;27.40
15574;DHT22;7888;46.748;8.102;2023-06-26T13:11:00;37.60;26.90
15574;DHT22;7888;46.748;8.102;2023-06-26T13:13:26;37.60;26.70
15574;DHT22;7888;46.748;8.102;2023-06-26T13:15:52;37.60;26.70
15574;DHT22;7888;46.748;8.102;2023-06-26T13:18:18;37.60;26.60
15574;DHT22;7888;46.748;8.102;2023-06-26T13:20:43;37.60;26.70
15574;DHT22;7888;46.748;8.102;2023-06-26T13:23:09;37.50;26.60
15574;DHT22;7888;46.748;8.102;2023-06-26T13:25:35;37.50;26.70
15574;DHT22;7888;46.748;8.102;2023-06-26T13:28:01;37.40;26.60
15574;DHT22;7888;46.748;8.102;2023-06-26T13:30:26;37.30;26.80
15574;DHT22;7888;46.748;8.102;2023-06-26T13:32:52;37.20;26.80
15574;DHT22;7888;46.748;8.102;2023-06-26T13:35:18;37.20;27.00
15574;DHT22;7888;46.748;8.102;2023-06-26T13:37:44;37.10;27.20
15574;DHT22;7888;46.748;8.102;2023-06-26T13:40:10;37.10;27.60
15574;DHT22;7888;46.748;8.102;2023-06-26T13:42:36;37.10;27.70
15574;DHT22;7888;46.748;8.102;2023-06-26T13:45:03;37.10;28.00
15574;DHT22;7888;46.748;8.102;2023-06-26T13:47:29;37.10;28.00
15574;DHT22;7888;46.748;8.102;2023-06-26T13:49:55;37.20;27.70
15574;DHT22;7888;46.748;8.102;2023-06-26T13:52:20;37.30;27.60
15574;DHT22;7888;46.748;8.102;2023-06-26T13:54:46;37.40;27.50
15574;DHT22;7888;46.748;8.102;2023-06-26T13:57:12;37.40;27.30
15574;DHT22;7888;46.748;8.102;2023-06-26T13:59:38;37.40;27.20
15574;DHT22;7888;46.748;8.102;2023-06-26T14:02:05;37.40;27.10
15574;DHT22;7888;46.748;8.102;2023-06-26T14:04:32;37.30;27.00
15574;DHT22;7888;46.748;8.102;2023-06-26T14:06:58;37.30;27.00
15574;DHT22;7888;46.748;8.102;2023-06-26T14:09:24;37.30;27.00
15574;DHT22;7888;46.748;8.102;2023-06-26T14:11:50;37.20;27.30
15574;DHT22;7888;46.748;8.102;2023-06-26T14:14:16;37.30;27.40
15574;DHT22;7888;46.748;8.102;2023-06-26T14:16:42;37.30;27.30
15574;DHT22;7888;46.748;8.102;2023-06-26T14:19:08;37.30;27.30
15574;DHT22;7888;46.748;8.102;2023-06-26T14:21:39;37.20;27.30
15574;DHT22;7888;46.748;8.102;2023-06-26T14:24:06;37.20;27.40
15574;DHT22;7888;46.748;8.102;2023-06-26T14:26:32;37.20;27.60
15574;DHT22;7888;46.748;8.102;2023-06-26T14:28:59;37.10;28.00
15574;DHT22;7888;46.748;8.102;2023-06-26T14:31:26;37.10;28.30
15574;DHT22;7888;46.748;8.102;2023-06-26T14:33:52;37.10;28.70
15574;DHT22;7888;46.748;8.102;2023-06-26T14:36:18;37.10;28.80
15574;DHT22;7888;46.748;8.102;2023-06-26T14:38:44;37.10;29.10
15574;DHT22;7888;46.748;8.102;2023-06-26T14:41:11;37.10;29.10
15574;DHT22;7888;46.748;8.102;2023-06-26T14:43:38;37.20;29.10
15574;DHT22;7888;46.748;8.102;2023-06-26T14:46:04;37.20;29.30
15574;DHT22;7888;46.748;8.102;2023-06-26T14:48:30;37.20;29.60
15574;DHT22;7888;46.748;8.102;2023-06-26T14:50:56;37.20;29.70
15574;DHT22;7888;46.748;8.102;2023-06-26T14:53:21;37.30;29.60
15574;DHT22;7888;46.748;8.102;2023-06-26T14:55:47;37.30;29.40
15574;DHT22;7888;46.748;8.102;2023-06-26T14:58:13;37.40;28.90
15574;DHT22;7888;46.748;8.102;2023-06-26T15:00:39;37.40;28.90
15574;DHT22;7888;46.748;8.102;2023-06-26T15:03:04;37.40;28.80
15574;DHT22;7888;46.748;8.102;2023-06-26T15:05:30;37.40;28.50
15574;DHT22;7888;46.748;8.102;2023-06-26T15:07:56;37.40;28.10
15574;DHT22;7888;46.748;8.102;2023-06-26T15:10:22;37.40;28.30
15574;DHT22;7888;46.748;8.102;2023-06-26T15:12:48;37.40;28.50
15574;DHT22;7888;46.748;8.102;2023-06-26T15:15:15;37.40;28.70
15574;DHT22;7888;46.748;8.102;2023-06-26T15:17:42;37.40;28.90
15574;DHT22;7888;46.748;8.102;2023-06-26T15:20:08;37.40;29.20
15574;DHT22;7888;46.748;8.102;2023-06-26T15:22:34;37.30;29.20
15574;DHT22;7888;46.748;8.102;2023-06-26T15:25:00;37.30;29.50
15574;DHT22;7888;46.748;8.102;2023-06-26T15:27:26;37.30;29.50
15574;DHT22;7888;46.748;8.102;2023-06-26T15:29:52;37.20;29.50
15574;DHT22;7888;46.748;8.102;2023-06-26T15:32:17;37.20;29.50
15574;DHT22;7888;46.748;8.102;2023-06-26T15:34:43;37.20;29.40
15574;DHT22;7888;46.748;8.102;2023-06-26T15:37:09;37.10;29.40
15574;DHT22;7888;46.748;8.102;2023-06-26T15:39:35;37.10;29.20
15574;DHT22;7888;46.748;8.102;2023-06-26T15:42:00;37.00;29.30
15574;DHT22;7888;46.748;8.102;2023-06-26T15:44:28;36.90;29.20
15574;DHT22;7888;46.748;8.102;2023-06-26T15:46:53;36.80;29.30
15574;DHT22;7888;46.748;8.102;2023-06-26T15:49:19;36.70;29.40
15574;DHT22;7888;46.748;8.102;2023-06-26T15:51:45;36.60;29.20
15574;DHT22;7888;46.748;8.102;2023-06-26T15:54:13;36.40;29.10
15574;DHT22;7888;46.748;8.102;2023-06-26T15:56:38;36.20;29.20
15574;DHT22;7888;46.748;8.102;2023-06-26T15:59:05;36.10;29.40
15574;DHT22;7888;46.748;8.102;2023-06-26T16:01:31;35.90;29.60
15574;DHT22;7888;46.748;8.102;2023-06-26T16:03:56;35.80;29.70
15574;DHT22;7888;46.748;8.102;2023-06-26T16:06:22;35.70;29.80